Home > Products > Valid Products > TAF

000
FTUS44 KMRX 291730
TAFTYS
TAF
KTYS 291730Z 2918/3018 29008KT P6SM SCT060
     FM300100 36003KT P6SM SKC
     FM301400 04004KT P6SM SCT040=



000
FTUS44 KMRX 291730
TAFTRI
TAF
KTRI 291730Z 2918/3018 29008KT P6SM BKN050
     FM292300 VRB02KT P6SM FEW050
     FM300600 00000KT 5SM BR SKC
     FM300900 00000KT 2SM BR FEW002
     FM301300 VRB02KT P6SM SCT035=



000
FTUS44 KMRX 291730
TAFCHA
TAF
KCHA 291730Z 2918/3018 34010KT P6SM SCT060
     FM300200 36003KT P6SM SKC
     FM301400 02005KT P6SM SCT040=



000
FTUS44 KMRX 291730
TAFTYS
TAF
KTYS 291730Z 2918/3018 29008KT P6SM SCT060
     FM300100 36003KT P6SM SKC
     FM301400 04004KT P6SM SCT040=



000
FTUS44 KMRX 291730
TAFCHA
TAF
KCHA 291730Z 2918/3018 34010KT P6SM SCT060
     FM300200 36003KT P6SM SKC
     FM301400 02005KT P6SM SCT040=



000
FTUS44 KMRX 291730
TAFTRI
TAF
KTRI 291730Z 2918/3018 29008KT P6SM BKN050
     FM292300 VRB02KT P6SM FEW050
     FM300600 00000KT 5SM BR SKC
     FM300900 00000KT 2SM BR FEW002
     FM301300 VRB02KT P6SM SCT035=



000
FTUS44 KMRX 291325 AAA
TAFTRI
TAF AMD
KTRI 291325Z 2913/3012 29008KT P6SM SCT050
     FM300000 00000KT P6SM SCT080=



000
FTUS44 KMRX 291125
TAFTYS
TAF
KTYS 291125Z 2912/3012 33008KT P6SM SCT060
     FM300000 VRB03KT P6SM SCT080=



000
FTUS44 KMRX 291125
TAFTRI
TAF
KTRI 291125Z 2912/3012 29008KT P6SM SCT050
      TEMPO 2912/2914 4SM BR
     FM300000 00000KT P6SM SCT080=



000
FTUS44 KMRX 291125
TAFCHA
TAF
KCHA 291125Z 2912/3012 34010KT P6SM SCT060
     FM300000 36005KT P6SM SCT080=



000
FTUS44 KMRX 290530
TAFCHA
TAF
KCHA 290530Z 2906/3006 VRB03KT P6SM SCT080
     FM291500 34010KT P6SM SCT060
     FM300000 36005KT P6SM SCT080=



000
FTUS44 KMRX 290530
TAFTYS
TAF
KTYS 290530Z 2906/3006 36005KT P6SM BKN080
     FM291500 33008KT P6SM SCT060
     FM300000 VRB03KT P6SM SCT080=



000
FTUS44 KMRX 290530
TAFCHA
TAF
KCHA 290530Z 2906/3006 VRB03KT P6SM SCT080
     FM291500 34010KT P6SM SCT060
     FM300000 36005KT P6SM SCT080=



000
FTUS44 KMRX 290530
TAFTRI
TAF
KTRI 290530Z 2906/3006 00000KT P6SM BKN080
      TEMPO 2908/2912 4SM BR
     FM291500 29008KT P6SM BKN050
     FM300000 00000KT P6SM SCT080=



000
FTUS44 KMRX 290530
TAFTYS
TAF
KTYS 290530Z 2906/3006 36005KT P6SM BKN080
     FM291500 33008KT P6SM SCT060
     FM300000 VRB03KT P6SM SCT080=



000
FTUS44 KMRX 290530
TAFTRI
TAF
KTRI 290530Z 2906/3006 00000KT P6SM BKN080
      TEMPO 2908/2912 4SM BR
     FM291500 29008KT P6SM BKN050
     FM300000 00000KT P6SM SCT080=



000
FTUS44 KMRX 282330
TAFTRI
TAF
KTRI 282330Z 2900/2924 28009KT P6SM BKN090
     FM290100 29005KT P6SM BKN080
     FM290800 00000KT 5SM BR OVC060
     FM291400 27003KT P6SM SCT020 BKN050
     FM291800 29006KT P6SM SCT250=



000
FTUS44 KMRX 282330
TAFCHA
TAF
KCHA 282330Z 2900/2924 32010KT P6SM SCT050
     FM290200 34003KT P6SM SCT150
     FM291400 35010KT P6SM SCT080
     FM291800 34010G18KT P6SM SCT250=



000
FTUS44 KMRX 282330
TAFTYS
TAF
KTYS 282330Z 2900/2924 33006KT P6SM SCT050 BKN090
     FM290200 33004KT P6SM BKN060
     FM291400 34008KT P6SM SCT060
     FM291800 34010KT P6SM SCT250=



000
FTUS44 KMRX 282330
TAFCHA
TAF
KCHA 282330Z 2900/2924 32010KT P6SM SCT050
     FM290200 34003KT P6SM SCT150
     FM291400 35010KT P6SM SCT080
     FM291800 34010G18KT P6SM SCT250=



000
FTUS44 KMRX 282330
TAFTRI
TAF
KTRI 282330Z 2900/2924 28009KT P6SM BKN090
     FM290100 29005KT P6SM BKN080
     FM290800 00000KT 5SM BR OVC060
     FM291400 27003KT P6SM SCT020 BKN050
     FM291800 29006KT P6SM SCT250=



000
FTUS44 KMRX 282330
TAFTYS
TAF
KTYS 282330Z 2900/2924 33006KT P6SM SCT050 BKN090
     FM290200 33004KT P6SM BKN060
     FM291400 34008KT P6SM SCT060
     FM291800 34010KT P6SM SCT250=



000
FTUS44 KMRX 281813 AAA
TAFTYS
TAF AMD
KTYS 281813Z 2818/2918 28011KT P6SM SCT050
     FM290200 33004KT P6SM SCT120 BKN200
     FM291400 28008KT P6SM SCT060=



000
FTUS44 KMRX 281813 AAA
TAFTYS
TAF AMD
KTYS 281813Z 2818/2918 28011KT P6SM SCT050
     FM290200 33004KT P6SM SCT120 BKN200
     FM291400 28008KT P6SM SCT060=



000
FTUS44 KMRX 281727 AAA
TAFCHA
TAF AMD
KCHA 281727Z 2817/2918 32010G16KT P6SM SCT050
     FM290200 34003KT P6SM SCT150
     FM291400 33009KT P6SM SCT080=



000
FTUS44 KMRX 281727 AAA
TAFCHA
TAF AMD
KCHA 281727Z 2817/2918 32010G16KT P6SM SCT050
     FM290200 34003KT P6SM SCT150
     FM291400 33009KT P6SM SCT080=



000
FTUS44 KMRX 281722
TAFCHA
TAF
KCHA 281722Z 2818/2918 30010G16KT P6SM SCT050
     FM290200 34003KT P6SM SCT150
     FM291400 33009KT P6SM SCT080=



000
FTUS44 KMRX 281722
TAFTYS
TAF
KTYS 281722Z 2818/2918 29012G18KT P6SM SCT050
     FM290200 33004KT P6SM SCT120 BKN200
     FM291400 28008KT P6SM SCT060=



000
FTUS44 KMRX 281722
TAFTRI
TAF
KTRI 281722Z 2818/2918 28012G18KT P6SM SCT050
     FM290100 00000KT P6SM SCT080 BKN150
     FM291400 28006KT P6SM SCT050 BKN250=



000
FTUS44 KMRX 281722
TAFCHA
TAF
KCHA 281722Z 2818/2918 30010G16KT P6SM SCT050
     FM290200 34003KT P6SM SCT150
     FM291400 33009KT P6SM SCT080=



000
FTUS44 KMRX 281722
TAFTYS
TAF
KTYS 281722Z 2818/2918 29012G18KT P6SM SCT050
     FM290200 33004KT P6SM SCT120 BKN200
     FM291400 28008KT P6SM SCT060=



000
FTUS44 KMRX 281722
TAFTRI
TAF
KTRI 281722Z 2818/2918 28012G18KT P6SM SCT050
     FM290100 00000KT P6SM SCT080 BKN150
     FM291400 28006KT P6SM SCT050 BKN250=



000
FTUS44 KMRX 281643 AAB
TAFTYS
TAF AMD
KTYS 281643Z 2817/2912 30010KT P6SM SCT030
     FM281800 29012G20KT P6SM SCT050
     FM290000 32006KT P6SM SCT250=



000
FTUS44 KMRX 281643 AAB
TAFTYS
TAF AMD
KTYS 281643Z 2817/2912 30010KT P6SM SCT030
     FM281800 29012G20KT P6SM SCT050
     FM290000 32006KT P6SM SCT250=



000
FTUS44 KMRX 281642 AAA
TAFCHA
TAF AMD
KCHA 281642Z 2817/2912 30010G16KT P6SM SCT050
     FM290000 34006KT P6SM SCT250=



000
FTUS44 KMRX 281502 AAA
TAFTYS
TAF AMD
KTYS 281502Z 2815/2912 28010KT P6SM SCT020
     FM281600 29012G20KT P6SM SCT050
     FM290000 32006KT P6SM SCT250=



000
FTUS44 KMRX 281502 AAA
TAFTYS
TAF AMD
KTYS 281502Z 2815/2912 28010KT P6SM SCT020
     FM281600 29012G20KT P6SM SCT050
     FM290000 32006KT P6SM SCT250=



000
FTUS44 KMRX 281254 AAB
TAFTRI
TAF AMD
KTRI 281254Z 2813/2912 25008KT P6SM SCT009 BKN050
      TEMPO 2813/2814 BKN009
     FM281500 28012G20KT P6SM BKN050
     FM290000 28005KT P6SM BKN250=



000
FTUS44 KMRX 281254 AAB
TAFTRI
TAF AMD
KTRI 281254Z 2813/2912 25008KT P6SM SCT009 BKN050
      TEMPO 2813/2814 BKN009
     FM281500 28012G20KT P6SM BKN050
     FM290000 28005KT P6SM BKN250=



000
FTUS44 KMRX 281238 AAA
TAFTRI
TAF AMD
KTRI 281238Z 2813/2912 25008KT P6SM SCT010 BKN050
     FM281500 28012G20KT P6SM BKN050
     FM290000 28005KT P6SM BKN250=



000
FTUS44 KMRX 281238 AAA
TAFTRI
TAF AMD
KTRI 281238Z 2813/2912 25008KT P6SM SCT010 BKN050
     FM281500 28012G20KT P6SM BKN050
     FM290000 28005KT P6SM BKN250=



000
FTUS44 KMRX 281125
TAFTRI
TAF
KTRI 281125Z 2812/2912 25008KT P6SM BKN020
      TEMPO 2812/2814 BKN007
     FM281500 28012G20KT P6SM BKN050
     FM290000 28005KT P6SM BKN250=



000
FTUS44 KMRX 281125
TAFCHA
TAF
KCHA 281125Z 2812/2912 27008KT P6SM BKN070
     FM281500 31012G20KT P6SM SCT050
     FM290000 34006KT P6SM SCT250=



000
FTUS44 KMRX 281125
TAFTYS
TAF
KTYS 281125Z 2812/2912 24008KT P6SM SCT070
     FM281500 25012G20KT P6SM SCT050
     FM290000 32006KT P6SM SCT250=



000
FTUS44 KMRX 281125
TAFCHA
TAF
KCHA 281125Z 2812/2912 27008KT P6SM BKN070
     FM281500 31012G20KT P6SM SCT050
     FM290000 34006KT P6SM SCT250=



000
FTUS44 KMRX 281125
TAFTRI
TAF
KTRI 281125Z 2812/2912 25008KT P6SM BKN020
      TEMPO 2812/2814 BKN007
     FM281500 28012G20KT P6SM BKN050
     FM290000 28005KT P6SM BKN250=



000
FTUS44 KMRX 281125
TAFTYS
TAF
KTYS 281125Z 2812/2912 24008KT P6SM SCT070
     FM281500 25012G20KT P6SM SCT050
     FM290000 32006KT P6SM SCT250=



000
FTUS44 KMRX 280835 AAF
TAFTRI
TAF AMD
KTRI 280835Z 2809/2906 25006KT P6SM BKN020
     FM281400 27013G23KT P6SM BKN035
     FM281800 29012G20KT P6SM BKN060
     FM290000 30007KT P6SM SCT250=



000
FTUS44 KMRX 280835 AAF
TAFTRI
TAF AMD
KTRI 280835Z 2809/2906 25006KT P6SM BKN020
     FM281400 27013G23KT P6SM BKN035
     FM281800 29012G20KT P6SM BKN060
     FM290000 30007KT P6SM SCT250=



000
FTUS44 KMRX 280820 AAC
TAFCHA
TAF AMD
KCHA 280820Z 2808/2906 21006KT P6SM OVC060
     FM281300 29010KT P6SM SCT050
     FM281800 32014G20KT P6SM SCT080
     FM290000 34011KT P6SM SCT250=



000
FTUS44 KMRX 280820 AAC
TAFCHA
TAF AMD
KCHA 280820Z 2808/2906 21006KT P6SM OVC060
     FM281300 29010KT P6SM SCT050
     FM281800 32014G20KT P6SM SCT080
     FM290000 34011KT P6SM SCT250=



000
FTUS44 KMRX 280819 AAE
TAFTYS
TAF AMD
KTYS 280819Z 2808/2906 24006KT P6SM BKN020
     FM281300 25010G16KT P6SM SCT040
     FM281900 27012G20KT P6SM BKN070
     FM290000 33007KT P6SM BKN250=



000
FTUS44 KMRX 280819 AAE
TAFTYS
TAF AMD
KTYS 280819Z 2808/2906 24006KT P6SM BKN020
     FM281300 25010G16KT P6SM SCT040
     FM281900 27012G20KT P6SM BKN070
     FM290000 33007KT P6SM BKN250=



000
FTUS44 KMRX 280818 AAE
TAFTRI
TAF AMD
KTRI 280818Z 2808/2906 24006KT P6SM SCT025
     FM281400 27013G23KT P6SM BKN035
     FM281800 29012G20KT P6SM BKN060
     FM290000 30007KT P6SM SCT250=



000
FTUS44 KMRX 280818 AAE
TAFTRI
TAF AMD
KTRI 280818Z 2808/2906 24006KT P6SM SCT025
     FM281400 27013G23KT P6SM BKN035
     FM281800 29012G20KT P6SM BKN060
     FM290000 30007KT P6SM SCT250=



000
FTUS44 KMRX 280556 AAD
TAFTRI
TAF AMD
KTRI 280556Z 2806/2906 25005KT P6SM SCT010 BKN090
      TEMPO 2806/2808 4SM BR BKN020
     FM280800 24004KT 4SM BR BKN025
     FM281400 27013G23KT P6SM BKN035
     FM281800 29012G20KT P6SM BKN060
     FM290000 30007KT P6SM SCT250=



000
FTUS44 KMRX 280532 AAD
TAFTYS
TAF AMD
KTYS 280532Z 2806/2906 VRB05KT P6SM VCTS BKN035CB OVC050
     FM280700 23007KT P6SM FEW020 BKN050
     FM281100 24007KT 5SM BR FEW020 BKN060
     FM281300 25010G16KT P6SM SCT040
     FM281900 27012G20KT P6SM BKN070
     FM290000 33007KT P6SM BKN250=



000
FTUS44 KMRX 280532 AAD
TAFTYS
TAF AMD
KTYS 280532Z 2806/2906 VRB05KT P6SM VCTS BKN035CB OVC050
     FM280700 23007KT P6SM FEW020 BKN050
     FM281100 24007KT 5SM BR FEW020 BKN060
     FM281300 25010G16KT P6SM SCT040
     FM281900 27012G20KT P6SM BKN070
     FM290000 33007KT P6SM BKN250=



000
FTUS44 KMRX 280532 AAB
TAFCHA
TAF AMD
KCHA 280532Z 2806/2906 24011KT P6SM VCTS SCT035CB BKN250
      TEMPO 2806/2807 34010G20KT 4SM -TSRA BR BKN035CB
     FM280800 25008KT 6SM BR FEW015 OVC050
     FM281300 29013KT P6SM FEW035 SCT250
     FM281800 32014G20KT P6SM SCT080
     FM290000 34011KT P6SM SCT250=



000
FTUS44 KMRX 280532 AAB
TAFCHA
TAF AMD
KCHA 280532Z 2806/2906 24011KT P6SM VCTS SCT035CB BKN250
      TEMPO 2806/2807 34010G20KT 4SM -TSRA BR BKN035CB
     FM280800 25008KT 6SM BR FEW015 OVC050
     FM281300 29013KT P6SM FEW035 SCT250
     FM281800 32014G20KT P6SM SCT080
     FM290000 34011KT P6SM SCT250=



000
FTUS44 KMRX 280532 AAC
TAFTRI
TAF AMD
KTRI 280532Z 2806/2906 20006KT P6SM SCT010 BKN090
     FM280800 VRB03KT 4SM BR BKN025
     FM281400 27013G23KT P6SM BKN035
     FM281800 29012G20KT P6SM BKN060
     FM290000 30007KT P6SM SCT250=



000
FTUS44 KMRX 280532 AAC
TAFTRI
TAF AMD
KTRI 280532Z 2806/2906 20006KT P6SM SCT010 BKN090
     FM280800 VRB03KT 4SM BR BKN025
     FM281400 27013G23KT P6SM BKN035
     FM281800 29012G20KT P6SM BKN060
     FM290000 30007KT P6SM SCT250=



000
FTUS44 KMRX 280519 AAC
TAFTYS
TAF AMD
KTYS 280519Z 2805/2824 VRB05KT P6SM VCTS BKN035CB OVC070
     FM280800 25004KT 6SM BR FEW020
     FM281300 25010G16KT P6SM SCT040
     FM281900 27012G20KT P6SM BKN070
     FM282100 30012KT P6SM SCT250=



000
FTUS44 KMRX 280519 AAC
TAFTYS
TAF AMD
KTYS 280519Z 2805/2824 VRB05KT P6SM VCTS BKN035CB OVC070
     FM280800 25004KT 6SM BR FEW020
     FM281300 25010G16KT P6SM SCT040
     FM281900 27012G20KT P6SM BKN070
     FM282100 30012KT P6SM SCT250=



000
FTUS44 KMRX 280311 AAB
TAFTYS
TAF AMD
KTYS 280311Z 2803/2824 16012KT P6SM VCTS SCT040CB BKN070
      TEMPO 2804/2806 36015G25KT 2SM +TSRA BR BKN025CB
     FM280900 25004KT 6SM BR FEW020
     FM281300 25010G16KT P6SM SCT040
     FM281900 27012G20KT P6SM BKN070
     FM282100 30012KT P6SM SCT250=



000
FTUS44 KMRX 280311 AAB
TAFTYS
TAF AMD
KTYS 280311Z 2803/2824 16012KT P6SM VCTS SCT040CB BKN070
      TEMPO 2804/2806 36015G25KT 2SM +TSRA BR BKN025CB
     FM280900 25004KT 6SM BR FEW020
     FM281300 25010G16KT P6SM SCT040
     FM281900 27012G20KT P6SM BKN070
     FM282100 30012KT P6SM SCT250=



000
FTUS44 KMRX 280304 AAB
TAFTRI
TAF AMD
KTRI 280304Z 2803/2824 27007KT P6SM VCTS SCT040CB BKN100 OVC250
      TEMPO 2803/2805 36015G25KT 2SM +TSRA BKN030CB
     FM280500 25006KT P6SM BKN040
     FM280800 26004KT 4SM BR BKN025
     FM281300 30008KT P6SM BKN035
     FM281800 32012G20KT P6SM BKN060=



000
FTUS44 KMRX 280304 AAB
TAFTRI
TAF AMD
KTRI 280304Z 2803/2824 27007KT P6SM VCTS SCT040CB BKN100 OVC250
      TEMPO 2803/2805 36015G25KT 2SM +TSRA BKN030CB
     FM280500 25006KT P6SM BKN040
     FM280800 26004KT 4SM BR BKN025
     FM281300 30008KT P6SM BKN035
     FM281800 32012G20KT P6SM BKN060=



000
FTUS44 KMRX 280303 AAA
TAFTRI
TAF AMD
KTRI 280303Z 2803/2824 27007KT P6SM VCTS SCT040CB BKN100 OVC250
      TEMPO 2803/2805 36015G25KT BKN030CB
     FM280500 25006KT P6SM BKN040
     FM280800 26004KT 4SM BR BKN025
     FM281300 30008KT P6SM BKN035
     FM281800 32012G20KT P6SM BKN060=



000
FTUS44 KMRX 280303 AAA
TAFTRI
TAF AMD
KTRI 280303Z 2803/2824 27007KT P6SM VCTS SCT040CB BKN100 OVC250
      TEMPO 2803/2805 36015G25KT BKN030CB
     FM280500 25006KT P6SM BKN040
     FM280800 26004KT 4SM BR BKN025
     FM281300 30008KT P6SM BKN035
     FM281800 32012G20KT P6SM BKN060=



000
FTUS44 KMRX 280204 AAA
TAFCHA
TAF AMD
KCHA 280204Z 2802/2824 22011KT P6SM FEW050 SCT150 BKN250
     FM280500 22008KT P6SM VCTS SCT050CB BKN250
     FM280900 25008KT 6SM BR FEW015 OVC050
     FM281300 29013KT P6SM FEW035 SCT250
     FM281800 32014G20KT P6SM SCT080
     FM282300 34011KT P6SM SCT250=



000
FTUS44 KMRX 280204 AAA
TAFCHA
TAF AMD
KCHA 280204Z 2802/2824 22011KT P6SM FEW050 SCT150 BKN250
     FM280500 22008KT P6SM VCTS SCT050CB BKN250
     FM280900 25008KT 6SM BR FEW015 OVC050
     FM281300 29013KT P6SM FEW035 SCT250
     FM281800 32014G20KT P6SM SCT080
     FM282300 34011KT P6SM SCT250=



000
FTUS44 KMRX 280142 AAA
TAFTYS
TAF AMD
KTYS 280142Z 2802/2824 23011KT P6SM VCTS SCT020 BKN045CB
     FM280400 24007KT P6SM SCT040 BKN070
     FM280900 25004KT 6SM BR FEW020
     FM281300 25010G16KT P6SM SCT040
     FM281900 27012G20KT P6SM BKN070
     FM282100 30012KT P6SM SCT250=



000
FTUS44 KMRX 272331
TAFTRI
TAF
KTRI 272331Z 2800/2824 27007KT P6SM VCTS SCT030CB BKN080 OVC250
     FM280300 25006KT P6SM BKN040
     FM280800 26004KT 4SM BR BKN025
     FM281300 30008KT P6SM BKN035
     FM281800 32012G20KT P6SM BKN060=



000
FTUS44 KMRX 272331
TAFTYS
TAF
KTYS 272331Z 2800/2824 22014G22KT P6SM VCTS BKN045CB
      TEMPO 2800/2801 35015G25KT 1SM +TSRA BKN025CB
     FM280100 24015G22KT 4SM -TSRA BR SCT020 OVC035CB
     FM280400 24007KT P6SM SCT040 BKN070
     FM280900 25004KT 6SM BR FEW020
     FM281300 25010G16KT P6SM SCT040
     FM281900 27012G20KT P6SM BKN070
     FM282100 30012KT P6SM SCT250=



000
FTUS44 KMRX 272331
TAFCHA
TAF
KCHA 272331Z 2800/2824 24010KT P6SM VCTS SCT035 BKN050CB
     FM280200 26010G20KT 4SM -TSRA BR SCT020 OVC035CB
     FM280500 29005KT P6SM BKN060
     FM280900 30003KT 6SM BR FEW015
     FM281300 32010KT P6SM FEW035 SCT250
     FM281800 32014G20KT P6SM SCT080=



000
FTUS44 KMRX 272331
TAFCHA
TAF
KCHA 272331Z 2800/2824 24010KT P6SM VCTS SCT035 BKN050CB
     FM280200 26010G20KT 4SM -TSRA BR SCT020 OVC035CB
     FM280500 29005KT P6SM BKN060
     FM280900 30003KT 6SM BR FEW015
     FM281300 32010KT P6SM FEW035 SCT250
     FM281800 32014G20KT P6SM SCT080=



000
FTUS44 KMRX 272331
TAFTRI
TAF
KTRI 272331Z 2800/2824 27007KT P6SM VCTS SCT030CB BKN080 OVC250
     FM280300 25006KT P6SM BKN040
     FM280800 26004KT 4SM BR BKN025
     FM281300 30008KT P6SM BKN035
     FM281800 32012G20KT P6SM BKN060=



000
FTUS44 KMRX 272331
TAFTYS
TAF
KTYS 272331Z 2800/2824 22014G22KT P6SM VCTS BKN045CB
      TEMPO 2800/2801 35015G25KT 1SM +TSRA BKN025CB
     FM280100 24015G22KT 4SM -TSRA BR SCT020 OVC035CB
     FM280400 24007KT P6SM SCT040 BKN070
     FM280900 25004KT 6SM BR FEW020
     FM281300 25010G16KT P6SM SCT040
     FM281900 27012G20KT P6SM BKN070
     FM282100 30012KT P6SM SCT250=



000
FTUS44 KMRX 272314 AAB
TAFTYS
TAF AMD
KTYS 272314Z 2723/2818 23014G22KT P6SM VCTS BKN045CB
      TEMPO 2723/2801 35015G25KT 2SM +TSRA BKN025CB
     FM280100 24015G22KT 4SM -TSRA BR SCT020 OVC035CB
     FM280400 24007KT P6SM SCT040 BKN070
     FM280900 25004KT 6SM BR FEW020
     FM281300 26010KT P6SM FEW040=



000
FTUS44 KMRX 272314 AAB
TAFTYS
TAF AMD
KTYS 272314Z 2723/2818 23014G22KT P6SM VCTS BKN045CB
      TEMPO 2723/2801 35015G25KT 2SM +TSRA BKN025CB
     FM280100 24015G22KT 4SM -TSRA BR SCT020 OVC035CB
     FM280400 24007KT P6SM SCT040 BKN070
     FM280900 25004KT 6SM BR FEW020
     FM281300 26010KT P6SM FEW040=



000
FTUS44 KMRX 272300 AAA
TAFTYS
TAF AMD
KTYS 272300Z 2723/2818 23014G22KT P6SM VCTS BKN045CB
      TEMPO 2723/2801 35015G25KT BKN025CB
     FM280100 24015G22KT 4SM -TSRA BR SCT020 OVC035CB
     FM280400 24007KT P6SM SCT040 BKN070
     FM280900 25004KT 6SM BR FEW020
     FM281300 26010KT P6SM FEW040=



000
FTUS44 KMRX 272300 AAA
TAFTYS
TAF AMD
KTYS 272300Z 2723/2818 23014G22KT P6SM VCTS BKN045CB
      TEMPO 2723/2801 35015G25KT BKN025CB
     FM280100 24015G22KT 4SM -TSRA BR SCT020 OVC035CB
     FM280400 24007KT P6SM SCT040 BKN070
     FM280900 25004KT 6SM BR FEW020
     FM281300 26010KT P6SM FEW040=



000
FTUS44 KMRX 272257 AAD
TAFTRI
TAF AMD
KTRI 272257Z 2723/2818 VRB06KT P6SM VCTS SCT030CB BKN080 OVC250
     FM280300 25006KT P6SM BKN040
     FM280800 26004KT 6SM BR BKN025
     FM281300 27012KT P6SM BKN035=



000
FTUS44 KMRX 272208 AAC
TAFTRI
TAF AMD
KTRI 272208Z 2722/2818 24015KT 2SM TSRA BR SCT020 OVC030CB
      TEMPO 2722/2723 35018G28KT 1/2SM +TSRA FG BKN020CB
     FM272300 25010G18KT 5SM -TSRA BR SCT025 BKN040CB
     FM280300 25006KT P6SM BKN040
     FM280800 26004KT 6SM BR BKN025
     FM281300 27012KT P6SM BKN035=



000
FTUS44 KMRX 272208 AAC
TAFTRI
TAF AMD
KTRI 272208Z 2722/2818 24015KT 2SM TSRA BR SCT020 OVC030CB
      TEMPO 2722/2723 35018G28KT 1/2SM +TSRA FG BKN020CB
     FM272300 25010G18KT 5SM -TSRA BR SCT025 BKN040CB
     FM280300 25006KT P6SM BKN040
     FM280800 26004KT 6SM BR BKN025
     FM281300 27012KT P6SM BKN035=



000
FTUS44 KMRX 272121 AAB
TAFTRI
TAF AMD
KTRI 272121Z 2721/2818 24008KT P6SM VCTS SCT030 BKN040CB
     FM272200 23018G28KT 2SM TSRA BR SCT020 OVC030CB
     FM272300 25010G18KT 5SM -TSRA BR SCT025 BKN040CB
     FM280300 25006KT P6SM BKN040
     FM280800 26004KT 6SM BR BKN025
     FM281300 27012KT P6SM BKN035=



000
FTUS44 KMRX 272121 AAB
TAFTRI
TAF AMD
KTRI 272121Z 2721/2818 24008KT P6SM VCTS SCT030 BKN040CB
     FM272200 23018G28KT 2SM TSRA BR SCT020 OVC030CB
     FM272300 25010G18KT 5SM -TSRA BR SCT025 BKN040CB
     FM280300 25006KT P6SM BKN040
     FM280800 26004KT 6SM BR BKN025
     FM281300 27012KT P6SM BKN035=



000
FTUS44 KMRX 271815 AAA
TAFTRI
TAF AMD
KTRI 271815Z 2718/2818 24008KT P6SM SCT030 BKN045
      TEMPO 2718/2721 BKN030
     FM272100 25012G20KT P6SM VCTS BKN045CB OVC150
     FM272300 24010G22KT 4SM -TSRA BR SCT025 OVC035CB
     FM280300 25006KT P6SM BKN040
     FM280800 26004KT 6SM BR BKN025
     FM281300 27012KT P6SM BKN035=



000
FTUS44 KMRX 271815 AAA
TAFTRI
TAF AMD
KTRI 271815Z 2718/2818 24008KT P6SM SCT030 BKN045
      TEMPO 2718/2721 BKN030
     FM272100 25012G20KT P6SM VCTS BKN045CB OVC150
     FM272300 24010G22KT 4SM -TSRA BR SCT025 OVC035CB
     FM280300 25006KT P6SM BKN040
     FM280800 26004KT 6SM BR BKN025
     FM281300 27012KT P6SM BKN035=



000
FTUS44 KMRX 271735
TAFTRI
TAF
KTRI 271735Z 2718/2818 24008KT P6SM SCT025 BKN045
     FM272100 25012G20KT P6SM VCTS BKN045CB OVC150
     FM272300 24010G22KT 4SM -TSRA BR SCT025 OVC035CB
     FM280300 25006KT P6SM BKN040
     FM280800 26004KT 6SM BR BKN025
     FM281300 27012KT P6SM BKN035=



000
FTUS44 KMRX 271735
TAFTYS
TAF
KTYS 271735Z 2718/2818 23015G22KT P6SM SCT045 BKN250
     FM272300 23014G20KT P6SM VCTS BKN045CB
     FM280100 24015G22KT 4SM -TSRA BR SCT020 OVC035CB
     FM280400 24007KT P6SM SCT040 BKN070
     FM280900 25004KT 6SM BR FEW020
     FM281300 26010KT P6SM FEW040=



000
FTUS44 KMRX 271735
TAFCHA
TAF
KCHA 271735Z 2718/2818 24012G20KT P6SM SCT045 SCT200
     FM280000 23008KT P6SM VCTS SCT035 BKN050CB
     FM280200 26010G20KT 4SM -TSRA BR SCT020 OVC035CB
     FM280500 29005KT P6SM BKN060
     FM280900 30003KT 6SM BR FEW015
     FM281300 32010KT P6SM FEW035 SCT250=



000
FTUS44 KMRX 271735
TAFCHA
TAF
KCHA 271735Z 2718/2818 24012G20KT P6SM SCT045 SCT200
     FM280000 23008KT P6SM VCTS SCT035 BKN050CB
     FM280200 26010G20KT 4SM -TSRA BR SCT020 OVC035CB
     FM280500 29005KT P6SM BKN060
     FM280900 30003KT 6SM BR FEW015
     FM281300 32010KT P6SM FEW035 SCT250=



000
FTUS44 KMRX 271735
TAFTRI
TAF
KTRI 271735Z 2718/2818 24008KT P6SM SCT025 BKN045
     FM272100 25012G20KT P6SM VCTS BKN045CB OVC150
     FM272300 24010G22KT 4SM -TSRA BR SCT025 OVC035CB
     FM280300 25006KT P6SM BKN040
     FM280800 26004KT 6SM BR BKN025
     FM281300 27012KT P6SM BKN035=



000
FTUS44 KMRX 271735
TAFTYS
TAF
KTYS 271735Z 2718/2818 23015G22KT P6SM SCT045 BKN250
     FM272300 23014G20KT P6SM VCTS BKN045CB
     FM280100 24015G22KT 4SM -TSRA BR SCT020 OVC035CB
     FM280400 24007KT P6SM SCT040 BKN070
     FM280900 25004KT 6SM BR FEW020
     FM281300 26010KT P6SM FEW040=



000
FTUS44 KMRX 271614 AAA
TAFTYS
TAF AMD
KTYS 271614Z 2716/2812 24015G22KT P6SM BKN030
      TEMPO 2716/2719 SCT030 SCT150
     FM272100 23015G24KT P6SM VCTS BKN045CB
     FM280000 24012KT P6SM VCTS BKN040CB OVC100=



000
FTUS44 KMRX 271614 AAA
TAFTYS
TAF AMD
KTYS 271614Z 2716/2812 24015G22KT P6SM BKN030
      TEMPO 2716/2719 SCT030 SCT150
     FM272100 23015G24KT P6SM VCTS BKN045CB
     FM280000 24012KT P6SM VCTS BKN040CB OVC100=



000
FTUS44 KMRX 271611 AAB
TAFTRI
TAF AMD
KTRI 271611Z 2716/2812 21005KT P6SM BKN025
     FM271900 25012G20KT P6SM VCTS BKN045CB OVC150
     FM280000 27006KT P6SM VCTS BKN040CB OVC100=



000
FTUS44 KMRX 271611 AAB
TAFTRI
TAF AMD
KTRI 271611Z 2716/2812 21005KT P6SM BKN025
     FM271900 25012G20KT P6SM VCTS BKN045CB OVC150
     FM280000 27006KT P6SM VCTS BKN040CB OVC100=



000
FTUS44 KMRX 271431 AAA
TAFTRI
TAF AMD
KTRI 271431Z 2715/2812 22006KT P6SM BKN030
     FM271600 25012G20KT P6SM VCTS BKN045CB OVC150
     FM280000 27006KT P6SM VCTS BKN040CB OVC100=



000
FTUS44 KMRX 271125
TAFTYS
TAF
KTYS 271125Z 2712/2812 24010KT P6SM SCT050 OVC150
     FM271600 24015G25KT P6SM VCTS BKN050CB OVC150
     FM280000 24012KT P6SM VCTS BKN040CB OVC100=



000
FTUS44 KMRX 271125
TAFTRI
TAF
KTRI 271125Z 2712/2812 22006KT P6SM VCSH SCT050 OVC100
     FM271600 25012G20KT P6SM VCTS BKN050CB OVC150
     FM280000 27006KT P6SM VCTS BKN040CB OVC100=



000
FTUS44 KMRX 271125
TAFCHA
TAF
KCHA 271125Z 2712/2812 22008KT P6SM SCT050 BKN150
     FM271600 23012G20KT P6SM SCT050 BKN150
     FM280000 25006KT P6SM VCTS BKN040CB OVC100=



000
FTUS44 KMRX 271125
TAFTRI
TAF
KTRI 271125Z 2712/2812 22006KT P6SM VCSH SCT050 OVC100
     FM271600 25012G20KT P6SM VCTS BKN050CB OVC150
     FM280000 27006KT P6SM VCTS BKN040CB OVC100=



000
FTUS44 KMRX 270751 AAA
TAFTRI
TAF AMD
KTRI 270751Z 2708/2806 00000KT P6SM VCSH OVC150
      TEMPO 2708/2710 27008KT 3SM TSRA BR BKN030CB OVC050
     FM271200 24006KT P6SM SCT040 BKN150
     FM271600 25012G20KT P6SM VCTS BKN040CB OVC150
     FM280000 25008KT P6SM VCTS BKN050CB OVC150=



000
FTUS44 KMRX 270751 AAA
TAFTRI
TAF AMD
KTRI 270751Z 2708/2806 00000KT P6SM VCSH OVC150
      TEMPO 2708/2710 27008KT 3SM TSRA BR BKN030CB OVC050
     FM271200 24006KT P6SM SCT040 BKN150
     FM271600 25012G20KT P6SM VCTS BKN040CB OVC150
     FM280000 25008KT P6SM VCTS BKN050CB OVC150=



000
FTUS44 KMRX 270525
TAFTYS
TAF
KTYS 270525Z 2706/2806 22005KT P6SM VCSH OVC150
     FM271200 23010KT P6SM SCT050 BKN150
     FM271600 24015G25KT P6SM VCTS BKN050CB BKN150
     FM280000 24012KT P6SM VCTS BKN050CB OVC150=



000
FTUS44 KMRX 270525
TAFTRI
TAF
KTRI 270525Z 2706/2806 00000KT P6SM VCSH OVC150
     FM271200 24006KT P6SM SCT040 BKN150
     FM271600 25012G20KT P6SM VCTS BKN040CB OVC150
     FM280000 25008KT P6SM VCTS BKN050CB OVC150=



000
FTUS44 KMRX 270525
TAFTRI
TAF
KTRI 270525Z 2706/2806 00000KT P6SM VCSH OVC150
     FM271200 24006KT P6SM SCT040 BKN150
     FM271600 25012G20KT P6SM VCTS BKN040CB OVC150
     FM280000 25008KT P6SM VCTS BKN050CB OVC150=



000
FTUS44 KMRX 270525
TAFCHA
TAF
KCHA 270525Z 2706/2806 00000KT P6SM OVC150
     FM271200 22008KT P6SM SCT050 BKN150
     FM271600 23012G20KT P6SM SCT050 BKN150
     FM280000 23006KT P6SM VCTS BKN050CB OVC150=



000
FTUS44 KMRX 270525
TAFTYS
TAF
KTYS 270525Z 2706/2806 22005KT P6SM VCSH OVC150
     FM271200 23010KT P6SM SCT050 BKN150
     FM271600 24015G25KT P6SM VCTS BKN050CB BKN150
     FM280000 24012KT P6SM VCTS BKN050CB OVC150=



000
FTUS44 KMRX 270525
TAFCHA
TAF
KCHA 270525Z 2706/2806 00000KT P6SM OVC150
     FM271200 22008KT P6SM SCT050 BKN150
     FM271600 23012G20KT P6SM SCT050 BKN150
     FM280000 23006KT P6SM VCTS BKN050CB OVC150=



000
FTUS44 KMRX 262325
TAFCHA
TAF
KCHA 262325Z 2700/2724 21003KT P6SM SCT250
     FM271500 22011KT P6SM SCT035 BKN150
     FM271800 24014G22KT P6SM SCT250
     FM272100 23014KT P6SM SCT050 BKN250=



000
FTUS44 KMRX 262325
TAFTRI
TAF
KTRI 262325Z 2700/2724 20003KT P6SM SCT250
     FM270600 00000KT 5SM BR BKN250
     FM270900 00000KT 3SM BR VCSH SCT030 OVC080
     FM271300 00000KT P6SM VCSH SCT030 OVC250
     FM271600 25010KT P6SM VCTS SCT035CB BKN250
     FM271800 24014G22KT P6SM SCT050 BKN250
     FM272100 24017KT P6SM VCTS SCT050CB BKN250=



000
FTUS44 KMRX 262325
TAFTYS
TAF
KTYS 262325Z 2700/2724 23005KT P6SM SCT250
     FM271100 22005KT 5SM BR SCT120 BKN250
     FM271300 22008KT P6SM SCT120 BKN250
     FM271400 23015KT P6SM SCT035 BKN250
     FM271800 24018G28KT P6SM SCT050 SCT250
     FM272100 24016G24KT P6SM SCT050 BKN250=



000
FTUS44 KMRX 262325
TAFCHA
TAF
KCHA 262325Z 2700/2724 21003KT P6SM SCT250
     FM271500 22011KT P6SM SCT035 BKN150
     FM271800 24014G22KT P6SM SCT250
     FM272100 23014KT P6SM SCT050 BKN250=



000
FTUS44 KMRX 262325
TAFTYS
TAF
KTYS 262325Z 2700/2724 23005KT P6SM SCT250
     FM271100 22005KT 5SM BR SCT120 BKN250
     FM271300 22008KT P6SM SCT120 BKN250
     FM271400 23015KT P6SM SCT035 BKN250
     FM271800 24018G28KT P6SM SCT050 SCT250
     FM272100 24016G24KT P6SM SCT050 BKN250=



000
FTUS44 KMRX 262325
TAFTRI
TAF
KTRI 262325Z 2700/2724 20003KT P6SM SCT250
     FM270600 00000KT 5SM BR BKN250
     FM270900 00000KT 3SM BR VCSH SCT030 OVC080
     FM271300 00000KT P6SM VCSH SCT030 OVC250
     FM271600 25010KT P6SM VCTS SCT035CB BKN250
     FM271800 24014G22KT P6SM SCT050 BKN250
     FM272100 24017KT P6SM VCTS SCT050CB BKN250=



    US Dept of Commerce
    National Oceanic and Atmospheric Administration
    National Weather Service
    1325 East West Highway
    Silver Spring, MD 20910
    Page Author: NWS Internet Services Team
Disclaimer
Information Quality
Credits
Glossary
Privacy Policy
Freedom of Information Act (FOIA)
About Us
Career Opportunities